50OI weather

CLOSED Beckman Field
Ashville, Ohio, United States

Public forecast

Using degrees Fahrenheit for public forecast. Weather courtesy of forecast.io.

METAR (pilot weather report)

Closest report is Rickenbacker International Airport, 6.7 nm (12.3 km) NE. Retrieved 2019/05/23 12:35 UTC (0 seconds ago):

KLCK 231235Z AUTO 28015G22KT 10SM SCT030 SCT040 BKN047 21/18 A3012 RMK AO2 LTG DSNT NE SW AND W T02120180

TAF (pilot weather forecast)

Closest forecast is Rickenbacker International Airport, 6.7 nm (12.3 km) NE. Retrieved 2019/05/23 12:42 UTC (0 seconds ago):

TAF KLCK 231130Z 2312/2412 21008KT P6SM -SHRA BKN050 TEMPO 2312/2313 27020G30KT 4SM -TSRA BKN035CB FM231400 22014G22KT P6SM SCT100 FM231800 25016G24KT P6SM SCT050 FM240100 29011KT P6SM FEW250 FM240400 34003KT P6SM FEW250